createdAt,value
2019-04-27T00:02:01.852Z,7.47
2019-04-27T00:07:26.924Z,5.67
2019-04-27T00:12:33.135Z,8.07
2019-04-27T00:17:56.897Z,6.27
2019-04-27T00:23:04.870Z,6.77
2019-04-27T00:28:12.752Z,7.83
2019-04-27T00:33:17.943Z,8.03
2019-04-27T00:38:31.195Z,5.20
2019-04-27T00:43:37.721Z,7.23
2019-04-27T00:48:44.614Z,5.77
2019-04-27T00:53:50.317Z,4.70
2019-04-27T00:59:13.744Z,5.07
2019-04-27T01:04:23.683Z,4.57
2019-04-27T01:09:29.658Z,6.77
2019-04-27T01:14:37.189Z,4.13
2019-04-27T01:19:41.934Z,6.70
2019-04-27T01:24:49.230Z,8.07
2019-04-27T01:29:55.389Z,5.93
2019-04-27T01:35:01.425Z,6.60
2019-04-27T01:40:06.401Z,8.93
2019-04-27T01:45:11.683Z,7.67
2019-04-27T01:50:16.250Z,8.33
2019-04-27T01:55:20.895Z,9.57
2019-04-27T02:00:29.994Z,8.03
2019-04-27T02:05:46.366Z,5.53
2019-04-27T02:10:50.967Z,7.43
2019-04-27T02:15:55.235Z,9.40
2019-04-27T02:20:59.426Z,8.53
2019-04-27T02:26:03.694Z,7.53
2019-04-27T02:31:26.129Z,5.27
2019-04-27T02:36:30.696Z,7.77
2019-04-27T02:41:36.472Z,8.67
2019-04-27T02:46:40.908Z,8.13
2019-04-27T02:51:59.610Z,4.43
2019-04-27T02:57:04.548Z,7.10
2019-04-27T03:02:30.003Z,8.10
2019-04-27T03:07:39.930Z,7.33
2019-04-27T03:12:49.970Z,6.67
2019-04-27T03:18:26.567Z,8.17
2019-04-27T03:23:31.970Z,6.23
2019-04-27T03:28:39.922Z,8.83
2019-04-27T03:33:44.358Z,11.03
2019-04-27T03:38:51.259Z,7.73
2019-04-27T03:43:59.538Z,7.10
2019-04-27T03:49:05.208Z,13.00
2019-04-27T03:54:22.183Z,7.53
2019-04-27T03:59:53.522Z,6.73
2019-04-27T04:04:59.594Z,10.50
2019-04-27T04:10:06.084Z,8.33
2019-04-27T04:15:14.192Z,11.33
2019-04-27T04:20:20.993Z,9.70
2019-04-27T04:25:26.094Z,8.67
2019-04-27T04:30:31.031Z,11.53
2019-04-27T04:35:39.817Z,7.90
2019-04-27T04:40:51.205Z,9.23
2019-04-27T04:46:13.916Z,9.13
2019-04-27T04:51:20.093Z,9.70
2019-04-27T04:56:29.226Z,8.03
2019-04-27T05:01:35.045Z,8.63
2019-04-27T05:06:40.386Z,8.93
2019-04-27T05:11:46.063Z,6.97
2019-04-27T05:16:51.535Z,6.70
2019-04-27T05:21:56.307Z,7.17
2019-04-27T05:27:01.113Z,9.17
2019-04-27T05:32:08.890Z,8.93
2019-04-27T05:37:13.794Z,8.07
2019-04-27T05:42:20.082Z,7.37
2019-04-27T05:47:39.255Z,9.73
2019-04-27T05:52:44.611Z,9.40
2019-04-27T05:57:49.631Z,11.23
2019-04-27T06:02:54.872Z,10.50
2019-04-27T06:08:01.591Z,10.23
2019-04-27T06:13:06.364Z,10.57
2019-04-27T06:18:11.559Z,8.73
2019-04-27T06:23:16.538Z,9.37
2019-04-27T06:28:21.419Z,10.97
2019-04-27T06:33:33.809Z,10.53
2019-04-27T06:38:34.104Z,8.80
2019-04-27T06:43:40.608Z,11.67
2019-04-27T06:48:45.915Z,12.23
2019-04-27T06:53:51.142Z,8.93
2019-04-27T06:58:56.260Z,9.27
2019-04-27T07:04:02.098Z,9.87
2019-04-27T07:09:09.710Z,13.07
2019-04-27T07:14:14.896Z,11.93
2019-04-27T07:19:20.248Z,11.33
2019-04-27T07:24:26.189Z,10.33
2019-04-27T07:29:31.964Z,15.47
2019-04-27T07:34:38.789Z,10.17
2019-04-27T07:39:49.214Z,13.33
2019-04-27T07:45:09.352Z,13.83
2019-04-27T07:50:15.985Z,12.03
2019-04-27T07:55:33.975Z,16.37
2019-04-27T08:00:39.577Z,14.97
2019-04-27T08:05:45.107Z,16.80
2019-04-27T08:10:50.314Z,17.07
2019-04-27T08:15:55.116Z,16.42
2019-04-27T08:21:00.134Z,19.70
2019-04-27T08:26:08.752Z,17.10
2019-04-27T08:31:35.821Z,17.67
2019-04-27T08:36:40.773Z,17.77
2019-04-27T08:41:46.591Z,15.45
2019-04-27T08:46:51.497Z,17.82
2019-04-27T08:51:59.924Z,15.37
2019-04-27T08:57:03.553Z,16.23
2019-04-27T09:02:08.888Z,19.52
2019-04-27T09:07:32.185Z,21.57
2019-04-27T09:13:13.088Z,19.53
2019-04-27T09:18:20.879Z,20.52
2019-04-27T09:23:25.888Z,22.10
2019-04-27T09:28:30.774Z,18.57
2019-04-27T09:33:35.915Z,20.55
2019-04-27T09:38:40.760Z,17.10
2019-04-27T09:43:46.599Z,18.75
2019-04-27T09:48:51.931Z,14.70
2019-04-27T09:53:56.750Z,15.90
2019-04-27T09:59:02.098Z,12.53
2019-04-27T10:04:07.278Z,14.07
2019-04-27T10:09:12.093Z,18.50
2019-04-27T10:14:17.255Z,15.18
2019-04-27T10:19:28.546Z,14.43
2019-04-27T10:24:29.434Z,15.98
2019-04-27T10:29:35.563Z,20.53
2019-04-27T10:34:40.523Z,18.57
2019-04-27T10:39:46.207Z,17.63
2019-04-27T10:44:51.439Z,14.40
2019-04-27T10:49:56.708Z,17.80
2019-04-27T10:55:02.637Z,20.10
2019-04-27T11:00:10.259Z,13.20
2019-04-27T11:05:26.230Z,11.00
2019-04-27T11:10:30.506Z,11.63
2019-04-27T11:15:37.092Z,9.63
2019-04-27T11:20:41.934Z,11.73
2019-04-27T11:25:47.970Z,15.53
2019-04-27T11:30:52.787Z,12.77
2019-04-27T11:36:17.073Z,12.13
2019-04-27T11:41:22.054Z,10.30
2019-04-27T11:46:26.917Z,14.00
2019-04-27T11:51:31.796Z,11.63
2019-04-27T11:56:36.874Z,17.10
2019-04-27T12:01:42.071Z,6.10
2019-04-27T12:06:47.362Z,9.23
2019-04-27T12:11:57.452Z,6.03
2019-04-27T12:17:01.906Z,14.13
2019-04-27T12:22:07.095Z,10.73
2019-04-27T12:27:35.871Z,8.53
2019-04-27T12:32:40.914Z,13.00
2019-04-27T12:37:46.193Z,8.33
2019-04-27T12:42:51.911Z,10.17
2019-04-27T12:47:57.446Z,11.43
2019-04-27T12:53:05.403Z,10.67
2019-04-27T12:58:33.779Z,12.90
2019-04-27T13:03:38.946Z,11.53
2019-04-27T13:08:45.697Z,11.70
2019-04-27T13:13:51.110Z,12.90
2019-04-27T13:18:57.496Z,11.85
2019-04-27T13:24:06.286Z,12.53
2019-04-27T13:29:09.392Z,12.60
2019-04-27T13:34:15.913Z,12.33
2019-04-27T13:39:21.266Z,14.67
2019-04-27T13:44:26.834Z,12.33
2019-04-27T13:49:48.952Z,12.00
2019-04-27T13:54:55.722Z,11.33
2019-04-27T14:00:01.282Z,12.50
2019-04-27T14:05:07.059Z,15.23
2019-04-27T14:10:13.082Z,13.17
2019-04-27T14:15:18.714Z,9.70
2019-04-27T14:20:23.582Z,12.90
2019-04-27T14:25:29.646Z,12.80
2019-04-27T14:30:34.767Z,14.03
2019-04-27T14:35:39.575Z,13.62
2019-04-27T14:40:44.520Z,18.37
2019-04-27T14:45:50.503Z,12.50
2019-04-27T14:50:55.359Z,13.70
2019-04-27T14:56:00.198Z,10.03
2019-04-27T15:01:05.164Z,14.97
2019-04-27T15:06:30.238Z,12.77
2019-04-27T15:11:35.223Z,10.70
2019-04-27T15:16:42.261Z,13.07
2019-04-27T15:21:56.402Z,14.20
2019-04-27T15:26:54.272Z,12.33
2019-04-27T15:32:04.233Z,15.20
2019-04-27T15:37:19.072Z,13.10
2019-04-27T15:42:30.606Z,11.23
2019-04-27T15:47:42.543Z,10.10
2019-04-27T15:52:48.759Z,11.13
2019-04-27T15:57:54.232Z,10.43
2019-04-27T16:02:59.072Z,8.33
2019-04-27T16:08:06.116Z,10.27
2019-04-27T16:13:15.076Z,9.93
2019-04-27T16:18:18.657Z,10.83
2019-04-27T16:23:25.613Z,10.47
2019-04-27T16:28:30.367Z,13.33
2019-04-27T16:33:35.302Z,11.40
2019-04-27T16:38:55.151Z,5.87
2019-04-27T16:44:02.405Z,4.67
2019-04-27T16:49:13.289Z,8.10
2019-04-27T16:54:17.442Z,12.33
2019-04-27T16:59:39.603Z,5.00
2019-04-27T17:04:29.120Z,5.93
2019-04-27T17:09:36.294Z,6.40
2019-04-27T17:14:51.231Z,8.83
2019-04-27T17:20:01.495Z,8.13
2019-04-27T17:25:08.833Z,7.93
2019-04-27T17:30:15.705Z,7.60
2019-04-27T17:35:21.144Z,9.80
2019-04-27T17:40:29.848Z,8.13
2019-04-27T17:45:36.235Z,10.43
2019-04-27T17:50:40.495Z,8.30
2019-04-27T17:55:46.808Z,10.90
2019-04-27T18:00:52.802Z,11.90
2019-04-27T18:05:58.228Z,11.80
2019-04-27T18:11:03.588Z,10.53
2019-04-27T18:16:09.298Z,6.40
2019-04-27T18:21:14.911Z,9.53
2019-04-27T18:26:49.537Z,8.57
2019-04-27T18:31:53.054Z,11.90
2019-04-27T18:36:55.275Z,11.43
2019-04-27T18:42:01.054Z,8.33
2019-04-27T18:47:05.983Z,10.80
2019-04-27T18:52:28.979Z,9.63
2019-04-27T18:57:33.919Z,7.43
2019-04-27T19:02:39.254Z,8.77
2019-04-27T19:07:44.832Z,6.70
2019-04-27T19:12:49.887Z,8.53
2019-04-27T19:17:54.825Z,11.63
2019-04-27T19:22:59.896Z,7.60
2019-04-27T19:28:13.007Z,9.97
2019-04-27T19:33:18.226Z,7.67
2019-04-27T19:38:23.463Z,3.57
2019-04-27T19:43:28.505Z,5.33
2019-04-27T19:48:33.475Z,3.87
2019-04-27T19:53:40.133Z,3.87
2019-04-27T19:58:49.765Z,5.87
2019-04-27T20:04:06.043Z,6.10
2019-04-27T20:09:22.714Z,7.07
2019-04-27T20:14:27.559Z,9.70
2019-04-27T20:19:33.308Z,11.23
2019-04-27T20:24:47.046Z,9.17
2019-04-27T20:29:52.353Z,10.43
2019-04-27T20:34:57.235Z,8.40
2019-04-27T20:40:02.447Z,14.20
2019-04-27T20:45:08.012Z,11.77
2019-04-27T20:50:13.000Z,14.40
2019-04-27T20:55:22.051Z,20.50
2019-04-27T21:00:26.993Z,24.47
2019-04-27T21:05:51.101Z,15.43
2019-04-27T21:10:56.016Z,11.63
2019-04-27T21:16:02.229Z,11.03
2019-04-27T21:21:11.335Z,10.80
2019-04-27T21:26:16.138Z,9.57
2019-04-27T21:31:21.400Z,6.30
2019-04-27T21:36:26.460Z,4.70
2019-04-27T21:41:31.380Z,6.60
2019-04-27T21:46:36.490Z,5.93
2019-04-27T21:52:01.379Z,5.47
2019-04-27T21:57:06.462Z,7.50
2019-04-27T22:02:14.466Z,5.87
2019-04-27T22:07:19.248Z,3.73
2019-04-27T22:12:24.374Z,4.00
2019-04-27T22:17:29.398Z,4.47
2019-04-27T22:22:41.387Z,6.93
2019-04-27T22:27:47.079Z,5.70
2019-04-27T22:32:52.543Z,5.40
2019-04-27T22:37:57.461Z,7.00
2019-04-27T22:43:23.122Z,7.43
2019-04-27T22:48:28.294Z,5.43
2019-04-27T22:53:33.478Z,4.90
2019-04-27T22:58:40.680Z,6.20
2019-04-27T23:03:48.035Z,11.03
2019-04-27T23:08:52.893Z,8.73
2019-04-27T23:13:58.677Z,4.80
2019-04-27T23:19:03.797Z,2.77
2019-04-27T23:24:08.864Z,4.20
2019-04-27T23:29:15.912Z,3.43
2019-04-27T23:34:21.631Z,4.63
2019-04-27T23:39:27.602Z,2.87
2019-04-27T23:44:32.764Z,4.00
2019-04-27T23:49:37.748Z,3.20
2019-04-27T23:54:42.959Z,2.10
2019-04-27T23:59:51.502Z,5.80
